sensor_id;sensor_type;location;lat;lon;timestamp;P1;durP1;ratioP1;P2;durP2;ratioP2
6300;SDS011;3183;51.010;6.898;2022-11-20T00:00:54;19.13;;;10.87;;
6300;SDS011;3183;51.010;6.898;2022-11-20T00:03:21;22.53;;;12.07;;
6300;SDS011;3183;51.010;6.898;2022-11-20T00:05:49;21.53;;;10.53;;
6300;SDS011;3183;51.010;6.898;2022-11-20T00:08:16;18.10;;;10.37;;
6300;SDS011;3183;51.010;6.898;2022-11-20T00:10:43;21.70;;;10.93;;
6300;SDS011;3183;51.010;6.898;2022-11-20T00:13:10;24.13;;;11.13;;
6300;SDS011;3183;51.010;6.898;2022-11-20T00:15:37;16.90;;;10.70;;
6300;SDS011;3183;51.010;6.898;2022-11-20T00:18:06;23.73;;;11.23;;
6300;SDS011;3183;51.010;6.898;2022-11-20T00:20:33;23.43;;;10.90;;
6300;SDS011;3183;51.010;6.898;2022-11-20T00:23:02;22.60;;;11.30;;
6300;SDS011;3183;51.010;6.898;2022-11-20T00:25:29;23.07;;;11.27;;
6300;SDS011;3183;51.010;6.898;2022-11-20T00:27:56;21.73;;;11.00;;
6300;SDS011;3183;51.010;6.898;2022-11-20T00:30:24;21.20;;;11.60;;
6300;SDS011;3183;51.010;6.898;2022-11-20T00:32:51;22.97;;;11.50;;
6300;SDS011;3183;51.010;6.898;2022-11-20T00:35:20;19.70;;;10.80;;
6300;SDS011;3183;51.010;6.898;2022-11-20T00:37:47;25.17;;;12.70;;
6300;SDS011;3183;51.010;6.898;2022-11-20T00:40:15;22.17;;;11.60;;
6300;SDS011;3183;51.010;6.898;2022-11-20T00:42:42;21.63;;;10.60;;
6300;SDS011;3183;51.010;6.898;2022-11-20T00:45:09;21.37;;;11.13;;
6300;SDS011;3183;51.010;6.898;2022-11-20T00:47:38;20.07;;;11.63;;
6300;SDS011;3183;51.010;6.898;2022-11-20T00:50:05;20.73;;;12.00;;
6300;SDS011;3183;51.010;6.898;2022-11-20T00:52:34;19.10;;;10.10;;
6300;SDS011;3183;51.010;6.898;2022-11-20T00:55:02;23.30;;;11.03;;
6300;SDS011;3183;51.010;6.898;2022-11-20T00:57:29;20.43;;;10.50;;
6300;SDS011;3183;51.010;6.898;2022-11-20T00:59:56;19.10;;;10.60;;
6300;SDS011;3183;51.010;6.898;2022-11-20T01:02:23;25.27;;;11.63;;
6300;SDS011;3183;51.010;6.898;2022-11-20T01:04:50;25.53;;;13.03;;
6300;SDS011;3183;51.010;6.898;2022-11-20T01:07:18;16.53;;;10.17;;
6300;SDS011;3183;51.010;6.898;2022-11-20T01:09:46;20.87;;;10.70;;
6300;SDS011;3183;51.010;6.898;2022-11-20T01:12:14;22.30;;;11.07;;
6300;SDS011;3183;51.010;6.898;2022-11-20T01:14:42;19.33;;;11.73;;
6300;SDS011;3183;51.010;6.898;2022-11-20T01:17:09;22.27;;;11.60;;
6300;SDS011;3183;51.010;6.898;2022-11-20T01:19:36;27.73;;;12.70;;
6300;SDS011;3183;51.010;6.898;2022-11-20T01:22:03;27.13;;;11.80;;
6300;SDS011;3183;51.010;6.898;2022-11-20T01:24:30;17.57;;;9.90;;
6300;SDS011;3183;51.010;6.898;2022-11-20T01:26:58;23.00;;;11.30;;
6300;SDS011;3183;51.010;6.898;2022-11-20T01:29:26;22.40;;;12.33;;
6300;SDS011;3183;51.010;6.898;2022-11-20T01:31:53;21.30;;;11.30;;
6300;SDS011;3183;51.010;6.898;2022-11-20T01:34:21;24.80;;;12.77;;
6300;SDS011;3183;51.010;6.898;2022-11-20T01:36:50;19.77;;;11.03;;
6300;SDS011;3183;51.010;6.898;2022-11-20T01:39:18;20.63;;;11.17;;
6300;SDS011;3183;51.010;6.898;2022-11-20T01:41:46;24.73;;;12.23;;
6300;SDS011;3183;51.010;6.898;2022-11-20T01:44:49;25.63;;;12.80;;
6300;SDS011;3183;51.010;6.898;2022-11-20T01:47:17;22.17;;;12.20;;
6300;SDS011;3183;51.010;6.898;2022-11-20T01:49:48;26.57;;;12.37;;
6300;SDS011;3183;51.010;6.898;2022-11-20T01:52:17;23.10;;;11.27;;
6300;SDS011;3183;51.010;6.898;2022-11-20T01:54:47;24.63;;;13.00;;
6300;SDS011;3183;51.010;6.898;2022-11-20T01:57:14;23.90;;;11.20;;
6300;SDS011;3183;51.010;6.898;2022-11-20T01:59:43;20.30;;;10.77;;
6300;SDS011;3183;51.010;6.898;2022-11-20T02:02:12;20.17;;;11.77;;
6300;SDS011;3183;51.010;6.898;2022-11-20T02:04:40;20.27;;;11.00;;
6300;SDS011;3183;51.010;6.898;2022-11-20T02:07:08;22.70;;;11.47;;
6300;SDS011;3183;51.010;6.898;2022-11-20T02:09:35;23.87;;;12.23;;
6300;SDS011;3183;51.010;6.898;2022-11-20T02:12:02;19.67;;;11.10;;
6300;SDS011;3183;51.010;6.898;2022-11-20T02:14:30;29.17;;;12.50;;
6300;SDS011;3183;51.010;6.898;2022-11-20T02:16:56;23.50;;;12.37;;
6300;SDS011;3183;51.010;6.898;2022-11-20T02:19:26;23.90;;;12.17;;
6300;SDS011;3183;51.010;6.898;2022-11-20T02:21:56;23.13;;;11.60;;
6300;SDS011;3183;51.010;6.898;2022-11-20T02:24:27;19.63;;;11.63;;
6300;SDS011;3183;51.010;6.898;2022-11-20T02:26:54;22.07;;;11.43;;
6300;SDS011;3183;51.010;6.898;2022-11-20T02:29:23;19.33;;;10.97;;
6300;SDS011;3183;51.010;6.898;2022-11-20T02:31:52;22.80;;;11.30;;
6300;SDS011;3183;51.010;6.898;2022-11-20T02:34:20;21.17;;;10.57;;
6300;SDS011;3183;51.010;6.898;2022-11-20T02:36:47;21.47;;;11.40;;
6300;SDS011;3183;51.010;6.898;2022-11-20T02:39:15;19.93;;;11.87;;
6300;SDS011;3183;51.010;6.898;2022-11-20T02:41:44;22.03;;;12.17;;
6300;SDS011;3183;51.010;6.898;2022-11-20T02:44:11;24.43;;;11.13;;
6300;SDS011;3183;51.010;6.898;2022-11-20T02:46:39;25.53;;;12.73;;
6300;SDS011;3183;51.010;6.898;2022-11-20T02:49:07;20.47;;;10.37;;
6300;SDS011;3183;51.010;6.898;2022-11-20T02:51:34;22.27;;;11.83;;
6300;SDS011;3183;51.010;6.898;2022-11-20T02:54:03;24.67;;;11.13;;
6300;SDS011;3183;51.010;6.898;2022-11-20T02:56:30;23.97;;;10.97;;
6300;SDS011;3183;51.010;6.898;2022-11-20T02:58:58;19.97;;;12.03;;
6300;SDS011;3183;51.010;6.898;2022-11-20T03:01:26;19.80;;;11.17;;
6300;SDS011;3183;51.010;6.898;2022-11-20T03:03:53;22.60;;;10.80;;
6300;SDS011;3183;51.010;6.898;2022-11-20T03:06:21;21.53;;;11.80;;
6300;SDS011;3183;51.010;6.898;2022-11-20T03:08:48;18.93;;;11.30;;
6300;SDS011;3183;51.010;6.898;2022-11-20T03:11:15;22.57;;;11.83;;
6300;SDS011;3183;51.010;6.898;2022-11-20T03:13:43;19.63;;;11.67;;
6300;SDS011;3183;51.010;6.898;2022-11-20T03:16:12;17.93;;;9.93;;
6300;SDS011;3183;51.010;6.898;2022-11-20T03:18:39;22.20;;;10.93;;
6300;SDS011;3183;51.010;6.898;2022-11-20T03:21:07;20.00;;;10.20;;
6300;SDS011;3183;51.010;6.898;2022-11-20T03:23:35;23.60;;;10.90;;
6300;SDS011;3183;51.010;6.898;2022-11-20T03:26:12;19.90;;;10.93;;
6300;SDS011;3183;51.010;6.898;2022-11-20T03:28:39;17.27;;;10.60;;
6300;SDS011;3183;51.010;6.898;2022-11-20T03:31:07;20.10;;;11.67;;
6300;SDS011;3183;51.010;6.898;2022-11-20T03:33:36;22.10;;;11.67;;
6300;SDS011;3183;51.010;6.898;2022-11-20T03:36:04;18.00;;;10.40;;
6300;SDS011;3183;51.010;6.898;2022-11-20T03:38:32;21.90;;;11.70;;
6300;SDS011;3183;51.010;6.898;2022-11-20T03:41:00;23.10;;;11.40;;
6300;SDS011;3183;51.010;6.898;2022-11-20T03:43:28;23.77;;;11.40;;
6300;SDS011;3183;51.010;6.898;2022-11-20T03:45:55;23.13;;;10.90;;
6300;SDS011;3183;51.010;6.898;2022-11-20T03:48:22;19.67;;;10.97;;
6300;SDS011;3183;51.010;6.898;2022-11-20T03:50:51;23.80;;;11.27;;
6300;SDS011;3183;51.010;6.898;2022-11-20T03:53:19;22.60;;;11.47;;
6300;SDS011;3183;51.010;6.898;2022-11-20T03:55:50;23.63;;;11.83;;
6300;SDS011;3183;51.010;6.898;2022-11-20T03:58:17;18.93;;;10.03;;
6300;SDS011;3183;51.010;6.898;2022-11-20T04:00:44;20.67;;;11.37;;
6300;SDS011;3183;51.010;6.898;2022-11-20T04:03:11;26.73;;;11.60;;
6300;SDS011;3183;51.010;6.898;2022-11-20T04:05:38;18.80;;;10.53;;
6300;SDS011;3183;51.010;6.898;2022-11-20T04:08:07;24.43;;;12.40;;
6300;SDS011;3183;51.010;6.898;2022-11-20T04:10:34;24.27;;;11.37;;
6300;SDS011;3183;51.010;6.898;2022-11-20T04:13:02;23.23;;;13.30;;
6300;SDS011;3183;51.010;6.898;2022-11-20T04:15:30;22.60;;;11.20;;
6300;SDS011;3183;51.010;6.898;2022-11-20T04:17:57;26.00;;;11.80;;
6300;SDS011;3183;51.010;6.898;2022-11-20T04:20:24;20.50;;;11.57;;
6300;SDS011;3183;51.010;6.898;2022-11-20T04:22:52;23.73;;;11.37;;
6300;SDS011;3183;51.010;6.898;2022-11-20T04:25:21;23.80;;;11.60;;
6300;SDS011;3183;51.010;6.898;2022-11-20T04:27:49;20.47;;;11.10;;
6300;SDS011;3183;51.010;6.898;2022-11-20T04:30:16;23.20;;;12.47;;
6300;SDS011;3183;51.010;6.898;2022-11-20T04:32:43;22.93;;;12.23;;
6300;SDS011;3183;51.010;6.898;2022-11-20T04:35:10;20.80;;;10.90;;
6300;SDS011;3183;51.010;6.898;2022-11-20T04:37:37;20.53;;;12.47;;
6300;SDS011;3183;51.010;6.898;2022-11-20T04:40:05;25.00;;;12.00;;
6300;SDS011;3183;51.010;6.898;2022-11-20T04:42:33;24.20;;;12.73;;
6300;SDS011;3183;51.010;6.898;2022-11-20T04:45:00;22.67;;;11.57;;
6300;SDS011;3183;51.010;6.898;2022-11-20T04:47:27;23.00;;;12.23;;
6300;SDS011;3183;51.010;6.898;2022-11-20T04:49:55;21.63;;;11.97;;
6300;SDS011;3183;51.010;6.898;2022-11-20T04:52:22;23.73;;;12.37;;
6300;SDS011;3183;51.010;6.898;2022-11-20T04:54:49;24.50;;;12.27;;
6300;SDS011;3183;51.010;6.898;2022-11-20T04:57:18;24.70;;;11.67;;
6300;SDS011;3183;51.010;6.898;2022-11-20T04:59:47;26.23;;;12.57;;
6300;SDS011;3183;51.010;6.898;2022-11-20T05:02:14;23.03;;;12.73;;
6300;SDS011;3183;51.010;6.898;2022-11-20T05:04:41;23.97;;;12.03;;
6300;SDS011;3183;51.010;6.898;2022-11-20T05:07:08;22.40;;;12.03;;
6300;SDS011;3183;51.010;6.898;2022-11-20T05:09:35;26.73;;;12.57;;
6300;SDS011;3183;51.010;6.898;2022-11-20T05:12:07;23.50;;;12.80;;
6300;SDS011;3183;51.010;6.898;2022-11-20T05:14:34;27.50;;;12.73;;
6300;SDS011;3183;51.010;6.898;2022-11-20T05:17:02;26.00;;;12.57;;
6300;SDS011;3183;51.010;6.898;2022-11-20T05:19:30;22.60;;;11.47;;
6300;SDS011;3183;51.010;6.898;2022-11-20T05:21:57;25.43;;;12.87;;
6300;SDS011;3183;51.010;6.898;2022-11-20T05:24:25;24.63;;;12.60;;
6300;SDS011;3183;51.010;6.898;2022-11-20T05:26:52;26.07;;;13.00;;
6300;SDS011;3183;51.010;6.898;2022-11-20T05:29:20;26.83;;;13.63;;
6300;SDS011;3183;51.010;6.898;2022-11-20T05:31:48;19.60;;;11.20;;
6300;SDS011;3183;51.010;6.898;2022-11-20T05:34:17;20.77;;;11.70;;
6300;SDS011;3183;51.010;6.898;2022-11-20T05:36:45;22.80;;;12.43;;
6300;SDS011;3183;51.010;6.898;2022-11-20T05:39:12;24.27;;;13.10;;
6300;SDS011;3183;51.010;6.898;2022-11-20T05:41:39;25.23;;;12.60;;
6300;SDS011;3183;51.010;6.898;2022-11-20T05:44:06;21.00;;;11.97;;
6300;SDS011;3183;51.010;6.898;2022-11-20T05:46:34;23.03;;;11.93;;
6300;SDS011;3183;51.010;6.898;2022-11-20T05:49:01;23.43;;;12.70;;
6300;SDS011;3183;51.010;6.898;2022-11-20T05:51:29;26.43;;;13.20;;
6300;SDS011;3183;51.010;6.898;2022-11-20T05:53:57;22.50;;;12.60;;
6300;SDS011;3183;51.010;6.898;2022-11-20T05:56:24;26.03;;;13.37;;
6300;SDS011;3183;51.010;6.898;2022-11-20T05:58:51;28.63;;;13.03;;
6300;SDS011;3183;51.010;6.898;2022-11-20T06:01:19;25.77;;;12.97;;
6300;SDS011;3183;51.010;6.898;2022-11-20T06:03:47;21.77;;;12.53;;
6300;SDS011;3183;51.010;6.898;2022-11-20T06:06:15;22.83;;;11.67;;
6300;SDS011;3183;51.010;6.898;2022-11-20T06:08:44;21.50;;;11.97;;
6300;SDS011;3183;51.010;6.898;2022-11-20T06:11:12;23.20;;;12.57;;
6300;SDS011;3183;51.010;6.898;2022-11-20T06:13:41;24.07;;;12.23;;
6300;SDS011;3183;51.010;6.898;2022-11-20T06:16:08;19.73;;;10.73;;
6300;SDS011;3183;51.010;6.898;2022-11-20T06:18:36;24.17;;;12.57;;
6300;SDS011;3183;51.010;6.898;2022-11-20T06:21:04;31.73;;;13.33;;
6300;SDS011;3183;51.010;6.898;2022-11-20T06:23:31;25.87;;;13.17;;
6300;SDS011;3183;51.010;6.898;2022-11-20T06:26:02;25.83;;;13.70;;
6300;SDS011;3183;51.010;6.898;2022-11-20T06:28:29;23.77;;;12.70;;
6300;SDS011;3183;51.010;6.898;2022-11-20T06:30:56;27.63;;;13.40;;
6300;SDS011;3183;51.010;6.898;2022-11-20T06:33:24;24.20;;;13.10;;
6300;SDS011;3183;51.010;6.898;2022-11-20T06:35:51;24.13;;;11.30;;
6300;SDS011;3183;51.010;6.898;2022-11-20T06:38:18;27.70;;;12.47;;
6300;SDS011;3183;51.010;6.898;2022-11-20T06:40:45;24.40;;;12.13;;
6300;SDS011;3183;51.010;6.898;2022-11-20T06:43:17;24.43;;;12.67;;
6300;SDS011;3183;51.010;6.898;2022-11-20T06:45:44;28.87;;;13.80;;
6300;SDS011;3183;51.010;6.898;2022-11-20T06:48:12;22.60;;;12.80;;
6300;SDS011;3183;51.010;6.898;2022-11-20T06:50:40;26.90;;;13.57;;
6300;SDS011;3183;51.010;6.898;2022-11-20T06:53:07;26.47;;;12.70;;
6300;SDS011;3183;51.010;6.898;2022-11-20T06:55:34;25.03;;;11.80;;
6300;SDS011;3183;51.010;6.898;2022-11-20T06:58:01;26.10;;;11.90;;
6300;SDS011;3183;51.010;6.898;2022-11-20T07:00:30;27.07;;;12.60;;
6300;SDS011;3183;51.010;6.898;2022-11-20T07:02:57;27.00;;;13.83;;
6300;SDS011;3183;51.010;6.898;2022-11-20T07:05:24;26.90;;;13.90;;
6300;SDS011;3183;51.010;6.898;2022-11-20T07:07:51;25.10;;;12.87;;
6300;SDS011;3183;51.010;6.898;2022-11-20T07:10:18;27.87;;;14.13;;
6300;SDS011;3183;51.010;6.898;2022-11-20T07:12:48;30.77;;;14.73;;
6300;SDS011;3183;51.010;6.898;2022-11-20T07:15:16;28.77;;;13.80;;
6300;SDS011;3183;51.010;6.898;2022-11-20T07:17:45;24.97;;;13.57;;
6300;SDS011;3183;51.010;6.898;2022-11-20T07:20:12;25.27;;;13.87;;
6300;SDS011;3183;51.010;6.898;2022-11-20T07:22:39;31.93;;;15.10;;
6300;SDS011;3183;51.010;6.898;2022-11-20T07:25:07;27.47;;;13.70;;
6300;SDS011;3183;51.010;6.898;2022-11-20T07:27:34;31.67;;;15.67;;
6300;SDS011;3183;51.010;6.898;2022-11-20T07:30:02;31.13;;;13.63;;
6300;SDS011;3183;51.010;6.898;2022-11-20T07:32:29;33.43;;;15.47;;
6300;SDS011;3183;51.010;6.898;2022-11-20T07:34:58;30.63;;;14.70;;
6300;SDS011;3183;51.010;6.898;2022-11-20T07:37:25;29.27;;;13.83;;
6300;SDS011;3183;51.010;6.898;2022-11-20T07:39:52;30.67;;;13.40;;
6300;SDS011;3183;51.010;6.898;2022-11-20T07:42:20;30.50;;;14.10;;
6300;SDS011;3183;51.010;6.898;2022-11-20T07:44:47;26.83;;;13.73;;
6300;SDS011;3183;51.010;6.898;2022-11-20T07:47:14;33.60;;;14.50;;
6300;SDS011;3183;51.010;6.898;2022-11-20T07:49:41;30.93;;;13.50;;
6300;SDS011;3183;51.010;6.898;2022-11-20T07:52:09;27.20;;;15.47;;
6300;SDS011;3183;51.010;6.898;2022-11-20T07:54:36;26.33;;;14.27;;
6300;SDS011;3183;51.010;6.898;2022-11-20T07:57:04;30.30;;;13.60;;
6300;SDS011;3183;51.010;6.898;2022-11-20T07:59:31;30.60;;;15.07;;
6300;SDS011;3183;51.010;6.898;2022-11-20T08:01:59;28.40;;;15.10;;
6300;SDS011;3183;51.010;6.898;2022-11-20T08:04:26;26.57;;;15.20;;
6300;SDS011;3183;51.010;6.898;2022-11-20T08:06:53;32.77;;;14.37;;
6300;SDS011;3183;51.010;6.898;2022-11-20T08:09:22;37.67;;;14.80;;
6300;SDS011;3183;51.010;6.898;2022-11-20T08:11:49;27.73;;;15.23;;
6300;SDS011;3183;51.010;6.898;2022-11-20T08:14:34;30.00;;;14.80;;
6300;SDS011;3183;51.010;6.898;2022-11-20T08:17:01;28.00;;;14.13;;
6300;SDS011;3183;51.010;6.898;2022-11-20T08:19:28;30.93;;;14.50;;
6300;SDS011;3183;51.010;6.898;2022-11-20T08:21:55;31.10;;;15.23;;
6300;SDS011;3183;51.010;6.898;2022-11-20T08:24:23;32.07;;;14.90;;
6300;SDS011;3183;51.010;6.898;2022-11-20T08:26:51;29.03;;;14.60;;
6300;SDS011;3183;51.010;6.898;2022-11-20T08:29:18;28.13;;;14.43;;
6300;SDS011;3183;51.010;6.898;2022-11-20T08:31:45;28.83;;;15.80;;
6300;SDS011;3183;51.010;6.898;2022-11-20T08:34:13;30.50;;;14.90;;
6300;SDS011;3183;51.010;6.898;2022-11-20T08:36:40;28.87;;;14.10;;
6300;SDS011;3183;51.010;6.898;2022-11-20T08:39:07;27.20;;;14.60;;
6300;SDS011;3183;51.010;6.898;2022-11-20T08:41:36;26.33;;;13.37;;
6300;SDS011;3183;51.010;6.898;2022-11-20T08:44:04;23.90;;;12.50;;
6300;SDS011;3183;51.010;6.898;2022-11-20T08:46:32;21.70;;;11.50;;
6300;SDS011;3183;51.010;6.898;2022-11-20T08:49:01;22.63;;;11.50;;
6300;SDS011;3183;51.010;6.898;2022-11-20T08:51:28;19.67;;;10.50;;
6300;SDS011;3183;51.010;6.898;2022-11-20T08:53:55;24.27;;;13.17;;
6300;SDS011;3183;51.010;6.898;2022-11-20T08:56:22;27.57;;;12.40;;
6300;SDS011;3183;51.010;6.898;2022-11-20T08:58:51;26.40;;;12.20;;
6300;SDS011;3183;51.010;6.898;2022-11-20T09:01:18;19.37;;;10.83;;
6300;SDS011;3183;51.010;6.898;2022-11-20T09:03:46;21.60;;;11.20;;
6300;SDS011;3183;51.010;6.898;2022-11-20T09:06:13;24.83;;;12.20;;
6300;SDS011;3183;51.010;6.898;2022-11-20T09:08:41;22.30;;;12.43;;
6300;SDS011;3183;51.010;6.898;2022-11-20T09:11:08;20.40;;;11.57;;
6300;SDS011;3183;51.010;6.898;2022-11-20T09:13:35;25.87;;;12.83;;
6300;SDS011;3183;51.010;6.898;2022-11-20T09:16:05;26.63;;;12.73;;
6300;SDS011;3183;51.010;6.898;2022-11-20T09:18:33;28.73;;;12.70;;
6300;SDS011;3183;51.010;6.898;2022-11-20T09:21:02;22.27;;;11.87;;
6300;SDS011;3183;51.010;6.898;2022-11-20T09:23:30;24.03;;;12.17;;
6300;SDS011;3183;51.010;6.898;2022-11-20T09:25:58;24.20;;;12.00;;
6300;SDS011;3183;51.010;6.898;2022-11-20T09:28:28;27.63;;;11.93;;
6300;SDS011;3183;51.010;6.898;2022-11-20T09:30:55;20.57;;;11.33;;
6300;SDS011;3183;51.010;6.898;2022-11-20T09:33:23;21.30;;;11.77;;
6300;SDS011;3183;51.010;6.898;2022-11-20T09:35:50;20.47;;;10.50;;
6300;SDS011;3183;51.010;6.898;2022-11-20T09:38:18;20.20;;;10.83;;
6300;SDS011;3183;51.010;6.898;2022-11-20T09:40:45;22.10;;;10.70;;
6300;SDS011;3183;51.010;6.898;2022-11-20T09:43:15;26.03;;;11.13;;
6300;SDS011;3183;51.010;6.898;2022-11-20T09:45:50;20.20;;;11.07;;
6300;SDS011;3183;51.010;6.898;2022-11-20T09:48:24;19.93;;;10.10;;
6300;SDS011;3183;51.010;6.898;2022-11-20T09:50:55;19.40;;;10.40;;
6300;SDS011;3183;51.010;6.898;2022-11-20T09:53:26;21.77;;;12.83;;
6300;SDS011;3183;51.010;6.898;2022-11-20T09:55:57;20.67;;;11.20;;
6300;SDS011;3183;51.010;6.898;2022-11-20T09:58:25;21.23;;;11.30;;
6300;SDS011;3183;51.010;6.898;2022-11-20T10:00:55;20.17;;;11.00;;
6300;SDS011;3183;51.010;6.898;2022-11-20T10:03:31;24.53;;;12.03;;
6300;SDS011;3183;51.010;6.898;2022-11-20T10:06:04;25.33;;;11.70;;
6300;SDS011;3183;51.010;6.898;2022-11-20T10:08:36;22.70;;;12.80;;
6300;SDS011;3183;51.010;6.898;2022-11-20T10:11:08;24.40;;;13.00;;
6300;SDS011;3183;51.010;6.898;2022-11-20T10:13:38;25.03;;;12.33;;
6300;SDS011;3183;51.010;6.898;2022-11-20T10:16:10;26.93;;;12.87;;
6300;SDS011;3183;51.010;6.898;2022-11-20T10:18:43;21.93;;;11.73;;
6300;SDS011;3183;51.010;6.898;2022-11-20T10:21:19;28.27;;;12.67;;
6300;SDS011;3183;51.010;6.898;2022-11-20T10:24:02;30.17;;;13.83;;
6300;SDS011;3183;51.010;6.898;2022-11-20T10:26:37;26.67;;;13.37;;
6300;SDS011;3183;51.010;6.898;2022-11-20T10:29:07;32.53;;;14.60;;
6300;SDS011;3183;51.010;6.898;2022-11-20T10:31:37;28.13;;;14.13;;
6300;SDS011;3183;51.010;6.898;2022-11-20T10:34:06;28.40;;;14.03;;
6300;SDS011;3183;51.010;6.898;2022-11-20T10:36:35;24.10;;;12.17;;
6300;SDS011;3183;51.010;6.898;2022-11-20T10:39:06;29.27;;;13.63;;
6300;SDS011;3183;51.010;6.898;2022-11-20T10:41:34;28.10;;;13.30;;
6300;SDS011;3183;51.010;6.898;2022-11-20T10:44:05;29.80;;;13.30;;
6300;SDS011;3183;51.010;6.898;2022-11-20T10:46:34;22.77;;;12.10;;
6300;SDS011;3183;51.010;6.898;2022-11-20T10:49:04;28.90;;;13.00;;
6300;SDS011;3183;51.010;6.898;2022-11-20T10:51:35;26.43;;;13.10;;
6300;SDS011;3183;51.010;6.898;2022-11-20T10:54:12;24.17;;;13.00;;
6300;SDS011;3183;51.010;6.898;2022-11-20T10:56:45;27.23;;;14.50;;
6300;SDS011;3183;51.010;6.898;2022-11-20T11:01:55;24.20;;;12.90;;
6300;SDS011;3183;51.010;6.898;2022-11-20T11:04:30;26.17;;;14.40;;
6300;SDS011;3183;51.010;6.898;2022-11-20T11:07:04;25.03;;;13.20;;
6300;SDS011;3183;51.010;6.898;2022-11-20T11:09:39;26.27;;;13.87;;
6300;SDS011;3183;51.010;6.898;2022-11-20T11:12:07;23.70;;;13.13;;
6300;SDS011;3183;51.010;6.898;2022-11-20T11:14:44;29.33;;;14.53;;
6300;SDS011;3183;51.010;6.898;2022-11-20T11:17:19;28.57;;;14.13;;
6300;SDS011;3183;51.010;6.898;2022-11-20T11:19:56;27.67;;;14.07;;
6300;SDS011;3183;51.010;6.898;2022-11-20T11:22:23;28.77;;;14.40;;
6300;SDS011;3183;51.010;6.898;2022-11-20T11:24:52;30.97;;;15.03;;
6300;SDS011;3183;51.010;6.898;2022-11-20T11:27:19;31.37;;;15.30;;
6300;SDS011;3183;51.010;6.898;2022-11-20T11:29:46;29.73;;;14.40;;
6300;SDS011;3183;51.010;6.898;2022-11-20T11:32:14;32.23;;;15.80;;
6300;SDS011;3183;51.010;6.898;2022-11-20T11:34:42;26.70;;;13.47;;
6300;SDS011;3183;51.010;6.898;2022-11-20T11:37:10;34.10;;;15.47;;
6300;SDS011;3183;51.010;6.898;2022-11-20T11:39:40;28.43;;;15.40;;
6300;SDS011;3183;51.010;6.898;2022-11-20T11:42:11;29.30;;;14.90;;
6300;SDS011;3183;51.010;6.898;2022-11-20T11:44:43;34.30;;;17.20;;
6300;SDS011;3183;51.010;6.898;2022-11-20T11:47:29;28.80;;;15.40;;
6300;SDS011;3183;51.010;6.898;2022-11-20T11:50:02;32.73;;;16.03;;
6300;SDS011;3183;51.010;6.898;2022-11-20T11:52:35;32.53;;;16.10;;
6300;SDS011;3183;51.010;6.898;2022-11-20T11:55:04;34.60;;;16.70;;
6300;SDS011;3183;51.010;6.898;2022-11-20T11:57:41;28.83;;;14.63;;
6300;SDS011;3183;51.010;6.898;2022-11-20T12:00:10;37.20;;;15.70;;
6300;SDS011;3183;51.010;6.898;2022-11-20T12:02:39;32.23;;;16.23;;
6300;SDS011;3183;51.010;6.898;2022-11-20T12:05:16;31.67;;;15.40;;
6300;SDS011;3183;51.010;6.898;2022-11-20T12:07:45;29.83;;;14.40;;
6300;SDS011;3183;51.010;6.898;2022-11-20T12:10:19;32.80;;;15.50;;
6300;SDS011;3183;51.010;6.898;2022-11-20T12:12:50;29.00;;;15.30;;
6300;SDS011;3183;51.010;6.898;2022-11-20T12:15:22;26.00;;;14.63;;
6300;SDS011;3183;51.010;6.898;2022-11-20T12:17:50;28.60;;;14.73;;
6300;SDS011;3183;51.010;6.898;2022-11-20T12:20:17;28.70;;;16.13;;
6300;SDS011;3183;51.010;6.898;2022-11-20T12:22:48;29.43;;;15.73;;
6300;SDS011;3183;51.010;6.898;2022-11-20T12:25:18;27.93;;;15.73;;
6300;SDS011;3183;51.010;6.898;2022-11-20T12:27:52;28.00;;;14.70;;
6300;SDS011;3183;51.010;6.898;2022-11-20T12:30:22;29.33;;;15.50;;
6300;SDS011;3183;51.010;6.898;2022-11-20T12:35:37;32.07;;;16.07;;
6300;SDS011;3183;51.010;6.898;2022-11-20T12:38:15;34.83;;;15.80;;
6300;SDS011;3183;51.010;6.898;2022-11-20T12:40:46;28.60;;;14.27;;
6300;SDS011;3183;51.010;6.898;2022-11-20T12:43:19;27.53;;;15.10;;
6300;SDS011;3183;51.010;6.898;2022-11-20T12:46:08;35.27;;;15.93;;
6300;SDS011;3183;51.010;6.898;2022-11-20T12:48:48;35.73;;;15.33;;
6300;SDS011;3183;51.010;6.898;2022-11-20T12:51:21;32.40;;;16.10;;
6300;SDS011;3183;51.010;6.898;2022-11-20T12:53:58;26.70;;;15.00;;
6300;SDS011;3183;51.010;6.898;2022-11-20T12:56:29;33.27;;;15.63;;
6300;SDS011;3183;51.010;6.898;2022-11-20T12:59:02;32.33;;;15.77;;
6300;SDS011;3183;51.010;6.898;2022-11-20T13:01:32;30.83;;;15.27;;
6300;SDS011;3183;51.010;6.898;2022-11-20T13:04:08;30.73;;;15.07;;
6300;SDS011;3183;51.010;6.898;2022-11-20T13:06:38;32.37;;;15.43;;
6300;SDS011;3183;51.010;6.898;2022-11-20T13:09:06;30.67;;;13.97;;
6300;SDS011;3183;51.010;6.898;2022-11-20T13:11:37;33.00;;;15.13;;
6300;SDS011;3183;51.010;6.898;2022-11-20T13:14:14;28.70;;;15.30;;
6300;SDS011;3183;51.010;6.898;2022-11-20T13:16:45;28.00;;;15.20;;
6300;SDS011;3183;51.010;6.898;2022-11-20T13:19:14;34.47;;;16.70;;
6300;SDS011;3183;51.010;6.898;2022-11-20T13:21:43;28.53;;;14.33;;
6300;SDS011;3183;51.010;6.898;2022-11-20T13:24:20;25.00;;;14.43;;
6300;SDS011;3183;51.010;6.898;2022-11-20T13:26:48;26.83;;;14.67;;
6300;SDS011;3183;51.010;6.898;2022-11-20T13:29:17;31.67;;;15.30;;
6300;SDS011;3183;51.010;6.898;2022-11-20T13:31:45;25.90;;;13.97;;
6300;SDS011;3183;51.010;6.898;2022-11-20T13:34:13;27.37;;;14.60;;
6300;SDS011;3183;51.010;6.898;2022-11-20T13:36:49;27.87;;;13.80;;
6300;SDS011;3183;51.010;6.898;2022-11-20T13:39:23;25.20;;;14.10;;
6300;SDS011;3183;51.010;6.898;2022-11-20T13:41:53;27.30;;;13.93;;
6300;SDS011;3183;51.010;6.898;2022-11-20T13:44:25;30.73;;;16.37;;
6300;SDS011;3183;51.010;6.898;2022-11-20T13:46:52;30.90;;;14.97;;
6300;SDS011;3183;51.010;6.898;2022-11-20T13:49:21;28.87;;;13.87;;
6300;SDS011;3183;51.010;6.898;2022-11-20T13:51:50;28.33;;;13.90;;
6300;SDS011;3183;51.010;6.898;2022-11-20T13:57:03;28.93;;;14.83;;
6300;SDS011;3183;51.010;6.898;2022-11-20T13:59:38;29.27;;;14.17;;
6300;SDS011;3183;51.010;6.898;2022-11-20T14:02:09;28.23;;;13.80;;
6300;SDS011;3183;51.010;6.898;2022-11-20T14:04:38;28.00;;;14.47;;
6300;SDS011;3183;51.010;6.898;2022-11-20T14:07:09;31.67;;;14.53;;
6300;SDS011;3183;51.010;6.898;2022-11-20T14:09:36;29.37;;;14.87;;
6300;SDS011;3183;51.010;6.898;2022-11-20T14:12:13;34.00;;;15.70;;
6300;SDS011;3183;51.010;6.898;2022-11-20T14:14:48;31.17;;;14.47;;
6300;SDS011;3183;51.010;6.898;2022-11-20T14:17:17;24.80;;;13.60;;
6300;SDS011;3183;51.010;6.898;2022-11-20T14:19:45;26.90;;;14.83;;
6300;SDS011;3183;51.010;6.898;2022-11-20T14:22:17;29.87;;;14.70;;
6300;SDS011;3183;51.010;6.898;2022-11-20T14:24:44;37.13;;;13.80;;
6300;SDS011;3183;51.010;6.898;2022-11-20T14:27:13;26.13;;;13.47;;
6300;SDS011;3183;51.010;6.898;2022-11-20T14:29:40;27.17;;;13.30;;
6300;SDS011;3183;51.010;6.898;2022-11-20T14:32:09;33.37;;;14.70;;
6300;SDS011;3183;51.010;6.898;2022-11-20T14:34:37;30.90;;;14.90;;
6300;SDS011;3183;51.010;6.898;2022-11-20T14:37:10;25.73;;;12.13;;
6300;SDS011;3183;51.010;6.898;2022-11-20T14:39:41;28.70;;;13.60;;
6300;SDS011;3183;51.010;6.898;2022-11-20T14:42:15;23.57;;;12.63;;
6300;SDS011;3183;51.010;6.898;2022-11-20T14:44:43;27.63;;;12.87;;
6300;SDS011;3183;51.010;6.898;2022-11-20T14:47:13;25.50;;;13.17;;
6300;SDS011;3183;51.010;6.898;2022-11-20T14:49:42;27.10;;;13.13;;
6300;SDS011;3183;51.010;6.898;2022-11-20T14:52:11;26.23;;;13.60;;
6300;SDS011;3183;51.010;6.898;2022-11-20T14:54:43;27.60;;;13.00;;
6300;SDS011;3183;51.010;6.898;2022-11-20T14:57:19;27.23;;;14.20;;
6300;SDS011;3183;51.010;6.898;2022-11-20T14:59:47;26.17;;;13.20;;
6300;SDS011;3183;51.010;6.898;2022-11-20T15:02:15;28.43;;;13.30;;
6300;SDS011;3183;51.010;6.898;2022-11-20T15:04:46;29.30;;;14.00;;
6300;SDS011;3183;51.010;6.898;2022-11-20T15:07:23;27.17;;;13.77;;